This is the latest recevied weather packets stored in our database for station/object N4AR. If no packets are shown the sender has not sent any weather packets the latest 1 day(s).
| Time | Temp. | Humidity | Pressure | Rain* | Wind** | Luminosity | Snow |
|---|---|---|---|---|---|---|---|
| 1778013970 | 30.56° C | 29% | 1013.1 hPa | 0 mm | 1.34 m/s, 75° | 583 W/m² | - |
| 1778013668 | 30.56° C | 29% | 1012.9 hPa | 0 mm | 0.89 m/s, 73° | 585 W/m² | - |
| 1778013364 | 30.56° C | 30% | 1013 hPa | 0 mm | 1.34 m/s, 106° | 586 W/m² | - |
| 1778013061 | 30.56° C | 29% | 1013.3 hPa | 0 mm | 1.34 m/s, 236° | 616 W/m² | - |
| 1778012756 | 30° C | 29% | 1013 hPa | 0 mm | 0.45 m/s, 85° | 637 W/m² | - |
| 1778012453 | 30.56° C | 29% | 1013.1 hPa | 0 mm | 0.45 m/s, 88° | 651 W/m² | - |
| 1778012150 | 31.11° C | 27% | 1013.1 hPa | 0 mm | 1.34 m/s, 230° | 670 W/m² | - |
| 1778011848 | 31.11° C | 28% | 1013.3 hPa | 0 mm | 0.45 m/s, 97° | 683 W/m² | - |
| 1778011545 | 31.11° C | 28% | 1013.5 hPa | 0 mm | 0.45 m/s, 70° | 695 W/m² | - |
| 1778011242 | 31.11° C | 28% | 1013.4 hPa | 0 mm | 0.45 m/s, 54° | 701 W/m² | - |
| 1778010938 | 31.11° C | 29% | 1013.3 hPa | 0 mm | 0.45 m/s, 95° | 721 W/m² | - |
| 1778010636 | 31.11° C | 28% | 1013.6 hPa | 0 mm | 0.89 m/s, 50° | 738 W/m² | - |
| 1778010333 | 31.67° C | 27% | 1013.6 hPa | 0 mm | 1.34 m/s, 93° | 745 W/m² | - |
| 1778010028 | 31.11° C | 29% | 1013.6 hPa | 0 mm | 0.45 m/s, 91° | 752 W/m² | - |
| 1778009725 | 31.11° C | 29% | 1013.7 hPa | 0 mm | 1.34 m/s, 335° | 767 W/m² | - |
| 1778009423 | 31.67° C | 28% | 1013.9 hPa | 0 mm | 1.34 m/s, 94° | 778 W/m² | - |
| 1778009121 | 31.67° C | 28% | 1013.9 hPa | 0 mm | 0.45 m/s, 71° | 785 W/m² | - |
| 1778008818 | 31.11° C | 29% | 1014.1 hPa | 0 mm | 0.45 m/s, 72° | 584 W/m² | - |
| 1778008516 | 30.56° C | 30% | 1014.1 hPa | 0 mm | 0.89 m/s, 83° | 814 W/m² | - |
| 1778008214 | 30° C | 30% | 1014.3 hPa | 0 mm | 0.89 m/s, 70° | 816 W/m² | - |
| 1778007908 | 30.56° C | 28% | 1014.3 hPa | 0 mm | 0.45 m/s, 164° | 835 W/m² | - |
| 1778007604 | 30.56° C | 31% | 1014.3 hPa | 0 mm | 0.89 m/s, 21° | 843 W/m² | - |
| 1778007302 | 30.56° C | 28% | 1014.4 hPa | 0 mm | 1.34 m/s, 162° | 842 W/m² | - |
| 1778006998 | 30.56° C | 30% | 1014.6 hPa | 0 mm | 0.45 m/s, 77° | 867 W/m² | - |
| 1778006695 | 30° C | 30% | 1014.8 hPa | 0 mm | 0.89 m/s, 99° | 844 W/m² | - |
* Rain latest hour (hover to see other rain measurements)
** Current wind speed in m/s (hover to see current wind gust speed)